createdAt,value
2018-01-20T00:01:40.198Z,2.66
2018-01-20T00:04:09.460Z,2.61
2018-01-20T00:06:38.224Z,2.49
2018-01-20T00:09:07.051Z,2.40
2018-01-20T00:11:53.886Z,2.29
2018-01-20T00:14:22.397Z,2.24
2018-01-20T00:16:51.109Z,2.28
2018-01-20T00:19:19.893Z,2.25
2018-01-20T00:21:49.197Z,2.27
2018-01-20T00:24:17.691Z,2.23
2018-01-20T00:26:46.360Z,2.32
2018-01-20T00:29:14.947Z,2.37
2018-01-20T00:31:43.432Z,2.43
2018-01-20T00:34:11.991Z,2.44
2018-01-20T00:36:40.693Z,2.35
2018-01-20T00:39:09.196Z,2.50
2018-01-20T00:41:37.965Z,2.65
2018-01-20T00:44:06.463Z,2.64
2018-01-20T00:46:35.228Z,2.62
2018-01-20T00:49:04.058Z,2.61
2018-01-20T00:51:33.319Z,2.57
2018-01-20T00:54:02.362Z,2.49
2018-01-20T00:56:31.925Z,2.47
2018-01-20T00:59:00.489Z,2.55
2018-01-20T01:01:28.996Z,2.59
2018-01-20T01:03:59.534Z,2.49
2018-01-20T01:06:28.204Z,2.42
2018-01-20T01:08:56.766Z,2.31
2018-01-20T01:11:25.955Z,2.30
2018-01-20T01:13:54.456Z,2.26
2018-01-20T01:16:22.946Z,2.28
2018-01-20T01:18:51.498Z,2.28
2018-01-20T01:21:20.004Z,2.36
2018-01-20T01:23:48.646Z,2.33
2018-01-20T01:26:17.988Z,2.33
2018-01-20T01:28:46.682Z,2.25
2018-01-20T01:31:15.301Z,2.16
2018-01-20T01:33:44.617Z,2.09
2018-01-20T01:36:14.254Z,2.12
2018-01-20T01:38:42.961Z,2.17
2018-01-20T01:41:11.595Z,2.19
2018-01-20T01:43:40.864Z,2.31
2018-01-20T01:46:09.634Z,2.45
2018-01-20T01:48:38.206Z,2.38
2018-01-20T01:51:06.896Z,2.31
2018-01-20T01:53:35.386Z,2.08
2018-01-20T01:56:04.170Z,2.10
2018-01-20T01:58:32.667Z,2.19
2018-01-20T02:01:01.749Z,2.05
2018-01-20T02:03:30.701Z,1.96
2018-01-20T02:05:59.196Z,1.88
2018-01-20T02:08:27.703Z,1.93
2018-01-20T02:10:56.427Z,1.93
2018-01-20T02:13:25.698Z,1.91
2018-01-20T02:15:54.479Z,1.77
2018-01-20T02:18:23.406Z,1.71
2018-01-20T02:20:52.873Z,1.69
2018-01-20T02:23:21.373Z,1.66
2018-01-20T02:25:50.175Z,1.57
2018-01-20T02:28:19.642Z,1.51
2018-01-20T02:30:48.199Z,1.61
2018-01-20T02:33:17.222Z,1.63
2018-01-20T02:35:45.723Z,1.61
2018-01-20T02:38:14.948Z,1.60
2018-01-20T02:40:44.255Z,1.73
2018-01-20T02:43:12.763Z,1.70
2018-01-20T02:45:41.292Z,1.79
2018-01-20T02:48:10.219Z,1.74
2018-01-20T02:50:38.720Z,1.74
2018-01-20T02:53:07.212Z,1.61
2018-01-20T02:55:35.936Z,1.67
2018-01-20T02:58:04.568Z,1.59
2018-01-20T03:00:33.168Z,1.72
2018-01-20T03:03:01.697Z,1.67
2018-01-20T03:05:31.127Z,1.66
2018-01-20T03:07:59.617Z,1.59
2018-01-20T03:10:28.157Z,1.53
2018-01-20T03:12:56.651Z,1.60
2018-01-20T03:15:25.163Z,1.52
2018-01-20T03:17:54.099Z,1.51
2018-01-20T03:20:23.448Z,1.52
2018-01-20T03:22:51.967Z,1.59
2018-01-20T03:25:21.279Z,1.53
2018-01-20T03:27:50.566Z,1.57
2018-01-20T03:30:19.835Z,1.66
2018-01-20T03:32:49.545Z,1.79
2018-01-20T03:35:18.027Z,1.97
2018-01-20T03:37:46.516Z,1.84
2018-01-20T03:40:15.063Z,1.65
2018-01-20T03:42:43.739Z,1.60
2018-01-20T03:45:12.331Z,1.56
2018-01-20T03:47:40.942Z,1.50
2018-01-20T03:50:09.588Z,1.44
2018-01-20T03:52:38.847Z,1.42
2018-01-20T03:55:07.620Z,1.40
2018-01-20T03:57:36.102Z,1.48
2018-01-20T04:00:04.787Z,1.46
2018-01-20T04:02:33.347Z,1.38
2018-01-20T04:05:02.000Z,1.47
2018-01-20T04:07:31.267Z,1.60
2018-01-20T04:09:59.975Z,1.71
2018-01-20T04:12:29.255Z,1.77
2018-01-20T04:14:57.941Z,1.78
2018-01-20T04:17:26.572Z,1.73
2018-01-20T04:19:55.068Z,1.79
2018-01-20T04:22:23.778Z,1.70
2018-01-20T04:24:52.344Z,1.60
2018-01-20T04:27:21.007Z,1.57
2018-01-20T04:29:49.725Z,1.68
2018-01-20T04:32:18.614Z,1.77
2018-01-20T04:34:47.110Z,1.83
2018-01-20T04:37:15.610Z,1.84
2018-01-20T04:39:45.031Z,1.78
2018-01-20T04:42:14.852Z,1.75
2018-01-20T04:44:44.200Z,1.74
2018-01-20T04:47:12.885Z,1.59
2018-01-20T04:49:41.571Z,1.73
2018-01-20T04:52:10.075Z,1.60
2018-01-20T04:54:38.700Z,1.53
2018-01-20T04:57:07.190Z,1.53
2018-01-20T04:59:35.688Z,1.45
2018-01-20T05:02:04.385Z,1.49
2018-01-20T05:04:32.878Z,1.50
2018-01-20T05:07:01.549Z,1.39
2018-01-20T05:09:30.111Z,1.56
2018-01-20T05:11:58.823Z,1.54
2018-01-20T05:14:27.314Z,1.47
2018-01-20T05:16:56.015Z,1.49
2018-01-20T05:19:24.504Z,1.56
2018-01-20T05:21:53.972Z,1.63
2018-01-20T05:24:22.531Z,1.64
2018-01-20T05:26:51.019Z,1.56
2018-01-20T05:29:19.515Z,1.55
2018-01-20T05:31:48.050Z,1.63
2018-01-20T05:34:17.366Z,1.62
2018-01-20T05:36:46.606Z,1.85
2018-01-20T05:39:15.152Z,1.91
2018-01-20T05:41:43.874Z,1.97
2018-01-20T05:44:12.595Z,2.01
2018-01-20T05:46:41.964Z,1.97
2018-01-20T05:49:10.538Z,1.81
2018-01-20T05:51:39.827Z,1.81
2018-01-20T05:54:08.598Z,1.60
2018-01-20T05:56:37.094Z,1.49
2018-01-20T05:59:05.831Z,1.42
2018-01-20T06:01:35.136Z,1.20
2018-01-20T06:04:03.640Z,1.28
2018-01-20T06:06:33.462Z,1.48
2018-01-20T06:09:02.259Z,1.74
2018-01-20T06:11:30.855Z,1.84
2018-01-20T06:13:59.666Z,1.88
2018-01-20T06:16:28.246Z,1.93
2018-01-20T06:18:57.530Z,2.07
2018-01-20T06:21:26.018Z,1.97
2018-01-20T06:23:54.550Z,2.23
2018-01-20T06:26:23.465Z,2.04
2018-01-20T06:28:52.088Z,2.09
2018-01-20T06:31:21.014Z,2.02
2018-01-20T06:33:49.524Z,2.13
2018-01-20T06:36:18.027Z,2.29
2018-01-20T06:38:47.336Z,2.37
2018-01-20T06:41:15.826Z,2.54
2018-01-20T06:43:44.521Z,2.84
2018-01-20T06:46:13.223Z,2.95
2018-01-20T06:48:41.728Z,3.06
2018-01-20T06:51:11.622Z,3.17
2018-01-20T06:53:41.327Z,3.26
2018-01-20T06:56:10.252Z,3.45
2018-01-20T06:58:39.031Z,3.53
2018-01-20T07:01:08.651Z,3.38
2018-01-20T07:03:37.914Z,3.49
2018-01-20T07:06:06.558Z,3.52
2018-01-20T07:08:35.485Z,3.67
2018-01-20T07:11:04.137Z,3.78
2018-01-20T07:13:33.629Z,3.89
2018-01-20T07:16:02.203Z,3.86
2018-01-20T07:18:30.949Z,4.05
2018-01-20T07:20:59.618Z,4.46
2018-01-20T07:23:28.219Z,4.19
2018-01-20T07:25:57.491Z,4.57
2018-01-20T07:28:25.992Z,4.90
2018-01-20T07:30:55.496Z,4.98
2018-01-20T07:33:23.996Z,5.09
2018-01-20T07:35:53.272Z,5.13
2018-01-20T07:38:21.840Z,5.28
2018-01-20T07:40:50.352Z,5.06
2018-01-20T07:43:19.698Z,4.92
2018-01-20T07:45:48.242Z,4.73
2018-01-20T07:48:16.969Z,4.94
2018-01-20T07:50:46.036Z,4.69
2018-01-20T07:53:14.611Z,4.54
2018-01-20T07:55:43.110Z,4.52
2018-01-20T07:58:12.372Z,4.74
2018-01-20T08:00:41.212Z,5.31
2018-01-20T08:03:10.512Z,5.61
2018-01-20T08:05:39.078Z,5.78
2018-01-20T08:08:07.867Z,5.88
2018-01-20T08:10:36.648Z,5.94
2018-01-20T08:13:05.193Z,5.98
2018-01-20T08:15:33.775Z,6.01
2018-01-20T08:18:02.503Z,6.10
2018-01-20T08:20:31.771Z,5.87
2018-01-20T08:23:00.494Z,6.04
2018-01-20T08:25:29.004Z,5.73
2018-01-20T08:27:57.814Z,6.06
2018-01-20T08:30:26.386Z,6.39
2018-01-20T08:32:54.939Z,6.33
2018-01-20T08:35:23.572Z,6.59
2018-01-20T08:37:52.591Z,6.75
2018-01-20T08:40:21.089Z,6.56
2018-01-20T08:42:49.587Z,7.11
2018-01-20T08:45:18.158Z,7.54
2018-01-20T08:47:46.655Z,8.18
2018-01-20T08:50:15.413Z,8.63
2018-01-20T08:52:43.961Z,8.64
2018-01-20T08:55:12.455Z,8.93
2018-01-20T08:57:40.952Z,8.87
2018-01-20T09:00:09.540Z,8.42
2018-01-20T09:02:38.098Z,8.20
2018-01-20T09:05:06.589Z,8.06
2018-01-20T09:07:36.001Z,8.11
2018-01-20T09:10:04.660Z,8.11
2018-01-20T09:12:33.180Z,8.02
2018-01-20T09:15:01.725Z,7.78
2018-01-20T09:17:30.218Z,8.05
2018-01-20T09:19:58.920Z,7.90
2018-01-20T09:22:27.994Z,7.82
2018-01-20T09:24:56.492Z,7.79
2018-01-20T09:27:24.984Z,7.50
2018-01-20T09:29:54.242Z,7.43
2018-01-20T09:32:23.719Z,7.32
2018-01-20T09:34:52.211Z,7.69
2018-01-20T09:37:20.979Z,8.04
2018-01-20T09:39:49.566Z,7.97
2018-01-20T09:42:18.820Z,8.10
2018-01-20T09:44:48.278Z,8.20
2018-01-20T09:47:16.776Z,8.31
2018-01-20T09:49:45.268Z,8.26
2018-01-20T09:52:14.609Z,8.31
2018-01-20T09:54:43.112Z,8.47
2018-01-20T09:57:11.619Z,8.50
2018-01-20T09:59:40.255Z,8.36
2018-01-20T10:02:08.783Z,8.09
2018-01-20T10:04:37.367Z,7.78
2018-01-20T10:07:06.079Z,7.51
2018-01-20T10:09:35.544Z,7.63
2018-01-20T10:12:04.035Z,7.29
2018-01-20T10:14:32.709Z,7.47
2018-01-20T10:17:01.235Z,7.81
2018-01-20T10:19:30.495Z,7.72
2018-01-20T10:22:00.138Z,7.67
2018-01-20T10:24:30.055Z,7.93
2018-01-20T10:26:59.822Z,8.20
2018-01-20T10:29:28.908Z,8.29
2018-01-20T10:31:57.499Z,8.26
2018-01-20T10:34:26.223Z,8.28
2018-01-20T10:36:55.646Z,8.25
2018-01-20T10:39:25.379Z,8.06
2018-01-20T10:41:54.125Z,8.16
2018-01-20T10:44:23.601Z,8.38
2018-01-20T10:46:52.096Z,8.64
2018-01-20T10:49:20.701Z,8.93
2018-01-20T10:51:50.864Z,9.04
2018-01-20T10:54:19.354Z,9.22
2018-01-20T10:56:47.899Z,9.57
2018-01-20T10:59:16.399Z,9.84
2018-01-20T11:01:44.967Z,9.86
2018-01-20T11:04:13.513Z,9.96
2018-01-20T11:06:42.007Z,10.49
2018-01-20T11:09:10.506Z,10.52
2018-01-20T11:11:39.273Z,10.49
2018-01-20T11:14:07.789Z,10.13
2018-01-20T11:16:36.612Z,10.31
2018-01-20T11:19:05.611Z,10.34
2018-01-20T11:21:34.175Z,10.54
2018-01-20T11:24:02.701Z,10.36
2018-01-20T11:26:31.461Z,10.03
2018-01-20T11:29:00.045Z,9.88
2018-01-20T11:31:28.555Z,10.06
2018-01-20T11:33:58.729Z,10.26
2018-01-20T11:36:28.145Z,10.43
2018-01-20T11:38:58.035Z,10.09
2018-01-20T11:41:26.616Z,10.10
2018-01-20T11:43:55.885Z,10.19
2018-01-20T11:46:24.394Z,10.42
2018-01-20T11:48:53.407Z,10.54
2018-01-20T11:51:22.659Z,10.08
2018-01-20T11:53:51.216Z,9.95
2018-01-20T11:56:19.863Z,10.08
2018-01-20T11:58:49.167Z,9.97
2018-01-20T12:01:18.443Z,10.08
2018-01-20T12:03:48.204Z,9.79
2018-01-20T12:06:16.896Z,9.79
2018-01-20T12:08:45.531Z,9.90
2018-01-20T12:11:14.827Z,9.79
2018-01-20T12:13:44.160Z,9.79
2018-01-20T12:16:12.693Z,9.98
2018-01-20T12:18:41.304Z,10.08
2018-01-20T12:21:09.811Z,9.89
2018-01-20T12:23:38.340Z,9.64
2018-01-20T12:26:07.779Z,9.69
2018-01-20T12:28:36.302Z,9.62
2018-01-20T12:31:04.878Z,9.82
2018-01-20T12:33:33.553Z,9.91
2018-01-20T12:36:02.198Z,10.07
2018-01-20T12:38:31.718Z,9.95
2018-01-20T12:41:00.331Z,10.17
2018-01-20T12:43:28.876Z,9.99
2018-01-20T12:45:57.484Z,9.81
2018-01-20T12:48:26.364Z,10.14
2018-01-20T12:50:54.948Z,10.33
2018-01-20T12:53:23.476Z,10.28
2018-01-20T12:55:53.190Z,10.28
2018-01-20T12:58:21.752Z,10.37
2018-01-20T13:00:50.279Z,10.69
2018-01-20T13:03:19.594Z,10.83
2018-01-20T13:05:48.100Z,10.44
2018-01-20T13:08:16.653Z,10.38
2018-01-20T13:10:45.457Z,10.21
2018-01-20T13:13:14.048Z,10.00
2018-01-20T13:15:42.560Z,9.86
2018-01-20T13:18:11.186Z,10.09
2018-01-20T13:20:39.696Z,9.82
2018-01-20T13:23:08.211Z,9.75
2018-01-20T13:25:36.885Z,9.96
2018-01-20T13:28:05.402Z,9.84
2018-01-20T13:30:33.965Z,9.98
2018-01-20T13:33:02.511Z,10.07
2018-01-20T13:35:31.063Z,9.77
2018-01-20T13:37:59.615Z,9.63
2018-01-20T13:40:29.340Z,9.67
2018-01-20T13:42:57.904Z,9.79
2018-01-20T13:45:26.519Z,9.66
2018-01-20T13:47:55.765Z,9.61
2018-01-20T13:50:25.041Z,9.72
2018-01-20T13:52:53.547Z,9.82
2018-01-20T13:55:22.892Z,9.88
2018-01-20T13:57:52.389Z,10.14
2018-01-20T14:00:21.009Z,9.96
2018-01-20T14:02:50.340Z,9.79
2018-01-20T14:05:18.832Z,9.69
2018-01-20T14:07:47.345Z,9.65
2018-01-20T14:10:16.978Z,9.85
2018-01-20T14:12:45.543Z,9.88
2018-01-20T14:15:14.850Z,9.88
2018-01-20T14:17:43.720Z,9.87
2018-01-20T14:20:13.046Z,9.89
2018-01-20T14:22:42.286Z,9.65
2018-01-20T14:25:11.104Z,9.50
2018-01-20T14:27:39.666Z,9.50
2018-01-20T14:30:08.177Z,9.29
2018-01-20T14:32:36.805Z,9.40
2018-01-20T14:35:05.523Z,9.49
2018-01-20T14:37:34.856Z,9.57
2018-01-20T14:40:04.532Z,9.41
2018-01-20T14:42:33.855Z,9.33
2018-01-20T14:45:02.416Z,9.47
2018-01-20T14:47:31.724Z,9.27
2018-01-20T14:50:01.808Z,9.23
2018-01-20T14:52:30.458Z,9.11
2018-01-20T14:54:59.040Z,9.03
2018-01-20T14:57:27.765Z,8.96
2018-01-20T14:59:56.281Z,8.90
2018-01-20T15:02:24.871Z,9.10
2018-01-20T15:04:53.367Z,9.18
2018-01-20T15:07:21.872Z,9.20
2018-01-20T15:09:50.723Z,9.23
2018-01-20T15:12:19.975Z,9.22
2018-01-20T15:14:48.948Z,9.14
2018-01-20T15:17:17.499Z,8.93
2018-01-20T15:19:45.992Z,8.89
2018-01-20T15:22:14.487Z,9.03
2018-01-20T15:24:44.059Z,9.19
2018-01-20T15:27:12.611Z,8.82
2018-01-20T15:29:41.120Z,8.90
2018-01-20T15:32:09.670Z,9.06
2018-01-20T15:34:38.224Z,9.01
2018-01-20T15:37:06.732Z,8.75
2018-01-20T15:39:36.254Z,8.71
2018-01-20T15:42:04.785Z,8.68
2018-01-20T15:44:33.515Z,8.66
2018-01-20T15:47:02.306Z,8.45
2018-01-20T15:49:31.085Z,8.63
2018-01-20T15:51:59.608Z,8.36
2018-01-20T15:54:28.957Z,8.16
2018-01-20T15:56:57.759Z,8.13
2018-01-20T15:59:26.287Z,8.28
2018-01-20T16:01:55.094Z,8.03
2018-01-20T16:04:23.616Z,7.91
2018-01-20T16:06:53.025Z,8.16
2018-01-20T16:09:22.408Z,8.41
2018-01-20T16:11:50.995Z,8.13
2018-01-20T16:14:19.644Z,8.18
2018-01-20T16:16:48.228Z,8.20
2018-01-20T16:19:17.030Z,8.20
2018-01-20T16:21:45.919Z,8.19
2018-01-20T16:24:14.460Z,8.23
2018-01-20T16:26:43.165Z,8.16
2018-01-20T16:29:12.436Z,8.20
2018-01-20T16:31:41.771Z,8.04
2018-01-20T16:34:10.988Z,8.12
2018-01-20T16:36:40.692Z,8.33
2018-01-20T16:39:09.300Z,8.32
2018-01-20T16:41:37.873Z,8.37
2018-01-20T16:44:06.444Z,8.20
2018-01-20T16:46:35.451Z,8.13
2018-01-20T16:49:05.456Z,8.10
2018-01-20T16:51:34.026Z,8.29
2018-01-20T16:54:02.949Z,8.20
2018-01-20T16:56:32.843Z,7.96
2018-01-20T16:59:02.539Z,8.13
2018-01-20T17:01:31.983Z,8.10
2018-01-20T17:04:01.310Z,8.29
2018-01-20T17:06:29.977Z,8.45
2018-01-20T17:08:58.487Z,8.49
2018-01-20T17:11:26.991Z,8.57
2018-01-20T17:13:55.531Z,8.47
2018-01-20T17:16:24.241Z,8.64
2018-01-20T17:18:52.751Z,8.45
2018-01-20T17:21:22.290Z,8.06
2018-01-20T17:23:51.745Z,8.42
2018-01-20T17:26:20.863Z,8.14
2018-01-20T17:28:50.101Z,8.24
2018-01-20T17:31:18.794Z,8.12
2018-01-20T17:33:47.316Z,8.24
2018-01-20T17:36:16.036Z,8.38
2018-01-20T17:38:45.471Z,8.31
2018-01-20T17:41:14.075Z,8.03
2018-01-20T17:43:44.515Z,8.15
2018-01-20T17:46:13.052Z,8.02
2018-01-20T17:48:42.599Z,7.98
2018-01-20T17:51:11.384Z,8.19
2018-01-20T17:53:40.010Z,8.11
2018-01-20T17:56:09.480Z,8.24
2018-01-20T17:58:38.216Z,8.17
2018-01-20T18:01:06.859Z,8.08
2018-01-20T18:03:35.601Z,7.80
2018-01-20T18:06:04.207Z,7.86
2018-01-20T18:08:32.715Z,7.82
2018-01-20T18:11:01.394Z,7.88
2018-01-20T18:13:30.635Z,7.89
2018-01-20T18:16:00.138Z,7.93
2018-01-20T18:18:29.420Z,8.02
2018-01-20T18:20:57.972Z,7.53
2018-01-20T18:23:26.476Z,7.58
2018-01-20T18:25:54.991Z,7.85
2018-01-20T18:28:23.608Z,7.81
2018-01-20T18:30:52.124Z,7.83
2018-01-20T18:33:20.618Z,7.96
2018-01-20T18:35:49.960Z,7.90
2018-01-20T18:38:18.469Z,7.83
2018-01-20T18:40:46.968Z,7.94
2018-01-20T18:43:15.816Z,7.98
2018-01-20T18:45:44.393Z,8.13
2018-01-20T18:48:12.966Z,8.06
2018-01-20T18:50:41.726Z,8.01
2018-01-20T18:53:10.991Z,8.27
2018-01-20T18:55:39.630Z,8.22
2018-01-20T18:58:08.469Z,8.25
2018-01-20T19:00:37.061Z,8.14
2018-01-20T19:03:06.413Z,8.04
2018-01-20T19:05:34.989Z,7.79
2018-01-20T19:08:03.581Z,7.72
2018-01-20T19:10:32.136Z,7.77
2018-01-20T19:13:01.444Z,7.50
2018-01-20T19:15:30.709Z,7.64
2018-01-20T19:17:59.461Z,7.45
2018-01-20T19:20:28.240Z,7.66
2018-01-20T19:22:56.743Z,7.40
2018-01-20T19:25:25.275Z,7.28
2018-01-20T19:27:54.099Z,6.85
2018-01-20T19:30:24.333Z,6.57
2018-01-20T19:32:52.910Z,6.59
2018-01-20T19:35:21.551Z,6.80
2018-01-20T19:37:50.132Z,6.83
2018-01-20T19:40:18.642Z,6.78
2018-01-20T19:42:47.977Z,6.89
2018-01-20T19:45:16.483Z,6.92
2018-01-20T19:47:44.995Z,6.87
2018-01-20T19:50:16.263Z,6.78
2018-01-20T19:52:44.892Z,6.78
2018-01-20T19:55:23.962Z,6.89
2018-01-20T19:57:53.281Z,7.19
2018-01-20T20:00:21.775Z,7.23
2018-01-20T20:02:50.684Z,7.29
2018-01-20T20:05:25.170Z,7.16
2018-01-20T20:07:57.529Z,7.23
2018-01-20T20:10:26.039Z,7.25
2018-01-20T20:12:54.605Z,7.40
2018-01-20T20:15:24.226Z,7.19
2018-01-20T20:17:56.435Z,7.10
2018-01-20T20:20:25.117Z,6.95
2018-01-20T20:22:53.703Z,7.04
2018-01-20T20:25:22.264Z,6.87
2018-01-20T20:27:50.864Z,7.05
2018-01-20T20:30:19.356Z,6.81
2018-01-20T20:32:47.854Z,6.86
2018-01-20T20:35:17.254Z,6.79
2018-01-20T20:37:45.811Z,6.86
2018-01-20T20:40:14.953Z,6.78
2018-01-20T20:42:44.528Z,6.70
2018-01-20T20:45:13.083Z,6.58
2018-01-20T20:47:41.651Z,6.36
2018-01-20T20:50:10.512Z,6.49
2018-01-20T20:52:39.788Z,6.41
2018-01-20T20:55:08.376Z,6.31
2018-01-20T20:57:36.915Z,6.18
2018-01-20T21:00:05.449Z,6.14
2018-01-20T21:02:34.008Z,6.16
2018-01-20T21:05:04.432Z,6.10
2018-01-20T21:07:32.988Z,6.02
2018-01-20T21:10:01.504Z,6.15
2018-01-20T21:12:30.132Z,5.97
2018-01-20T21:14:58.682Z,6.09
2018-01-20T21:17:27.242Z,6.06
2018-01-20T21:19:55.766Z,5.98
2018-01-20T21:22:25.035Z,5.90
2018-01-20T21:24:53.524Z,5.64
2018-01-20T21:27:22.220Z,5.68
2018-01-20T21:29:50.725Z,5.51
2018-01-20T21:32:19.281Z,5.52
2018-01-20T21:34:48.123Z,5.46
2018-01-20T21:37:16.623Z,5.53
2018-01-20T21:39:45.120Z,5.36
2018-01-20T21:42:13.840Z,5.36
2018-01-20T21:44:43.106Z,5.51
2018-01-20T21:47:11.672Z,5.43
2018-01-20T21:49:40.465Z,5.53
2018-01-20T21:52:08.970Z,5.67
2018-01-20T21:54:38.256Z,5.67
2018-01-20T21:57:06.811Z,5.74
2018-01-20T21:59:35.361Z,5.70
2018-01-20T22:02:04.674Z,5.80
2018-01-20T22:04:33.210Z,5.75
2018-01-20T22:07:01.700Z,5.60
2018-01-20T22:09:30.232Z,5.52
2018-01-20T22:11:58.853Z,5.53
2018-01-20T22:14:27.352Z,5.43
2018-01-20T22:16:55.859Z,5.29
2018-01-20T22:19:25.220Z,5.37
2018-01-20T22:21:53.712Z,5.35
2018-01-20T22:24:22.229Z,5.29
2018-01-20T22:26:50.865Z,5.24
2018-01-20T22:29:19.368Z,5.29
2018-01-20T22:31:47.927Z,5.40
2018-01-20T22:34:16.475Z,5.46
2018-01-20T22:36:44.968Z,5.41
2018-01-20T22:39:13.543Z,5.51
2018-01-20T22:41:42.151Z,5.41
2018-01-20T22:44:10.631Z,5.23
2018-01-20T22:46:39.114Z,5.05
2018-01-20T22:49:08.049Z,5.12
2018-01-20T22:51:37.315Z,5.21
2018-01-20T22:54:06.679Z,5.21
2018-01-20T22:56:35.251Z,5.32
2018-01-20T22:59:03.739Z,5.15
2018-01-20T23:01:32.231Z,5.12
2018-01-20T23:04:00.977Z,5.06
2018-01-20T23:06:30.256Z,4.92
2018-01-20T23:08:58.749Z,4.81
2018-01-20T23:11:28.061Z,4.79
2018-01-20T23:13:57.320Z,4.64
2018-01-20T23:16:25.815Z,4.62
2018-01-20T23:18:54.508Z,4.62
2018-01-20T23:21:23.015Z,4.48
2018-01-20T23:23:52.277Z,4.31
2018-01-20T23:26:21.260Z,4.35
2018-01-20T23:28:49.752Z,4.39
2018-01-20T23:31:18.243Z,4.46
2018-01-20T23:33:47.216Z,4.48
2018-01-20T23:36:15.728Z,4.53
2018-01-20T23:38:44.237Z,4.54
2018-01-20T23:41:12.984Z,4.59
2018-01-20T23:43:41.491Z,4.49
2018-01-20T23:46:10.760Z,4.55
2018-01-20T23:48:39.380Z,4.45
2018-01-20T23:51:08.690Z,4.29
2018-01-20T23:53:37.961Z,4.18
2018-01-20T23:56:06.500Z,4.16
2018-01-20T23:58:35.063Z,4.17
